Kezdőlap
METAR-TAF:

METAR-TAF

Repülőterek :

Boscobel Airport

Boscobel, Wisconsin, Amerikai Egyesült Államok

földrajzi szélesség: 43-09-22N, földrajzi hosszúság: 090-40-39W, magasság: 205 m

Jelenlegi meteorológiai megfigyelések

A jelentés 16 perccel ezelõtt készült, 10:02 UTC
Északkeleti szél 3 kt
Hőmérséklet 1°C
Páratartalom 86%
Légköri nyomás 1002 hPa
Látótávolság: 3.2 km
Borult 700 lábon
Párásság

METAR: KOVS 091002Z AUTO 05003KT 2SM BR OVC007 01/M01 A2959 RMK AO2 T00111006

Idő: 04:18 (10:18 UTC)


TAF: hiányzik

Meteorológiai megfigyelések és előrejelzések több, mint 4000 repülőtéren (METAR és TAF jelentéseket).

A térképen piros és sárga pontok jelzik az elérhető meteorológiai állomásokat.

Mozgassa az egeret a pont fölött, hogy megjelenjen az állomás neve.

Azután kattintson az időjárási megfigyelések és előrejelzések megtekintéséhez.

A térkép megváltoztatása: kattintson a fekete keresztel jelölt zöld gombra ráközelítéshez, a vonallal jelölt zöld gombra távolításhoz, vagy a zöld nyilakra a szomszédos térképek eléréséhez.


METAR-TAF: